createdAt,value
2018-07-03T00:01:00.406Z,98.90
2018-07-03T00:03:29.959Z,99.20
2018-07-03T00:05:59.539Z,99.90
2018-07-03T00:08:29.143Z,99.90
2018-07-03T00:13:27.914Z,99.90
2018-07-03T00:15:57.459Z,99.90
2018-07-03T00:18:27.053Z,99.90
2018-07-03T00:20:56.571Z,99.90
2018-07-03T00:23:26.165Z,99.90
2018-07-03T00:25:55.734Z,99.90
2018-07-03T00:28:25.349Z,99.90
2018-07-03T00:30:54.877Z,99.90
2018-07-03T00:35:53.500Z,99.90
2018-07-03T00:38:23.056Z,99.90
2018-07-03T00:40:52.628Z,99.90
2018-07-03T00:43:22.166Z,99.90
2018-07-03T00:45:52.049Z,99.90
2018-07-03T00:48:21.694Z,99.90
2018-07-03T00:50:51.255Z,99.90
2018-07-03T00:53:20.831Z,99.90
2018-07-03T00:58:19.392Z,99.90
2018-07-03T01:00:49.036Z,99.90
2018-07-03T01:05:47.686Z,99.90
2018-07-03T01:08:17.214Z,99.90
2018-07-03T01:10:46.752Z,99.90
2018-07-03T01:15:45.823Z,99.90
2018-07-03T01:18:15.391Z,99.90
2018-07-03T01:20:44.930Z,99.90
2018-07-03T01:23:14.464Z,99.90
2018-07-03T01:25:44.095Z,99.90
2018-07-03T01:28:13.639Z,99.90
2018-07-03T01:30:43.267Z,99.90
2018-07-03T01:33:12.791Z,99.90
2018-07-03T01:35:42.320Z,99.90
2018-07-03T01:38:11.906Z,99.90
2018-07-03T01:40:41.442Z,99.90
2018-07-03T01:43:11.038Z,99.90
2018-07-03T01:45:40.611Z,99.90
2018-07-03T01:48:10.256Z,99.90
2018-07-03T01:50:39.819Z,99.90
2018-07-03T01:53:09.426Z,99.90
2018-07-03T01:55:38.930Z,99.90
2018-07-03T01:58:08.484Z,99.90
2018-07-03T02:00:38.099Z,99.90
2018-07-03T02:03:07.673Z,99.90
2018-07-03T02:05:37.160Z,99.90
2018-07-03T02:08:06.747Z,99.90
2018-07-03T02:10:36.312Z,99.90
2018-07-03T02:13:06.003Z,99.90
2018-07-03T02:15:35.609Z,99.90
2018-07-03T02:18:05.200Z,99.90
2018-07-03T02:23:03.966Z,99.90
2018-07-03T02:25:33.505Z,99.90
2018-07-03T02:28:03.079Z,99.90
2018-07-03T02:30:32.630Z,99.90
2018-07-03T02:33:02.197Z,99.90
2018-07-03T02:35:31.765Z,99.90
2018-07-03T02:38:01.796Z,99.90
2018-07-03T02:40:31.416Z,99.90
2018-07-03T02:43:00.948Z,99.90
2018-07-03T02:45:30.534Z,99.90
2018-07-03T02:48:00.057Z,99.90
2018-07-03T02:50:29.582Z,99.90
2018-07-03T02:52:59.073Z,99.90
2018-07-03T02:55:29.160Z,99.90
2018-07-03T02:57:58.742Z,99.90
2018-07-03T03:00:28.251Z,99.90
2018-07-03T03:02:57.780Z,99.90
2018-07-03T03:05:27.903Z,99.90
2018-07-03T03:07:57.461Z,99.90
2018-07-03T03:10:27.001Z,99.90
2018-07-03T03:12:56.494Z,99.90
2018-07-03T03:15:25.997Z,99.90
2018-07-03T03:17:55.519Z,99.90
2018-07-03T03:20:25.061Z,99.90
2018-07-03T03:22:54.566Z,99.90
2018-07-03T03:25:24.106Z,99.90
2018-07-03T03:27:53.678Z,99.90
2018-07-03T03:30:23.218Z,99.90
2018-07-03T03:32:52.738Z,99.90
2018-07-03T03:35:22.274Z,99.90
2018-07-03T03:37:51.956Z,99.90
2018-07-03T03:40:21.462Z,99.90
2018-07-03T03:42:51.001Z,99.90
2018-07-03T03:47:49.686Z,99.90
2018-07-03T03:50:19.188Z,99.90
2018-07-03T03:52:49.287Z,99.90
2018-07-03T03:55:18.832Z,99.90
2018-07-03T03:57:48.382Z,99.90
2018-07-03T04:00:17.959Z,99.90
2018-07-03T04:02:47.554Z,99.90
2018-07-03T04:05:17.103Z,99.90
2018-07-03T04:07:46.644Z,99.90
2018-07-03T04:10:16.372Z,99.90
2018-07-03T04:12:45.963Z,99.90
2018-07-03T04:17:44.795Z,99.90
2018-07-03T04:20:14.362Z,99.90
2018-07-03T04:22:44.005Z,99.90
2018-07-03T04:25:13.630Z,99.90
2018-07-03T04:27:43.160Z,99.90
2018-07-03T04:30:12.720Z,99.90
2018-07-03T04:32:42.337Z,99.90
2018-07-03T04:35:11.927Z,99.90
2018-07-03T04:37:41.615Z,99.90
2018-07-03T04:40:11.218Z,99.90
2018-07-03T04:42:41.107Z,99.90
2018-07-03T04:45:11.125Z,99.90
2018-07-03T04:47:40.634Z,99.90
2018-07-03T04:50:10.192Z,99.90
2018-07-03T04:52:39.779Z,99.90
2018-07-03T04:57:38.403Z,99.90
2018-07-03T05:00:08.011Z,99.90
2018-07-03T05:02:38.037Z,99.90
2018-07-03T05:05:07.582Z,99.90
2018-07-03T05:07:37.223Z,99.90
2018-07-03T05:10:06.817Z,99.90
2018-07-03T05:12:36.676Z,99.90
2018-07-03T05:15:06.467Z,99.90
2018-07-03T05:17:35.957Z,99.90
2018-07-03T05:20:05.541Z,99.90
2018-07-03T05:22:35.020Z,99.90
2018-07-03T05:25:04.567Z,99.90
2018-07-03T05:27:34.072Z,99.90
2018-07-03T05:30:03.739Z,99.90
2018-07-03T05:32:33.208Z,99.90
2018-07-03T05:35:02.750Z,99.90
2018-07-03T05:37:32.283Z,99.90
2018-07-03T05:42:30.935Z,99.90
2018-07-03T05:45:00.484Z,99.90
2018-07-03T05:47:29.992Z,99.90
2018-07-03T05:49:59.544Z,99.90
2018-07-03T05:52:29.297Z,99.90
2018-07-03T05:54:58.888Z,99.90
2018-07-03T05:57:28.525Z,99.90
2018-07-03T05:59:58.304Z,99.90
2018-07-03T06:02:27.824Z,99.90
2018-07-03T06:07:26.817Z,99.90
2018-07-03T06:09:57.054Z,99.90
2018-07-03T06:12:26.655Z,99.90
2018-07-03T06:14:56.348Z,99.90
2018-07-03T06:17:25.788Z,99.90
2018-07-03T06:19:55.311Z,99.90
2018-07-03T06:22:24.967Z,99.90
2018-07-03T06:24:54.808Z,99.90
2018-07-03T06:29:53.275Z,99.90
2018-07-03T06:32:23.564Z,99.90
2018-07-03T06:34:52.994Z,99.90
2018-07-03T06:37:22.556Z,99.90
2018-07-03T06:39:52.028Z,99.90
2018-07-03T06:42:21.595Z,99.90
2018-07-03T06:44:51.212Z,99.90
2018-07-03T06:47:20.681Z,99.90
2018-07-03T06:49:50.259Z,99.90
2018-07-03T06:52:19.773Z,99.30
2018-07-03T06:54:49.296Z,99.30
2018-07-03T06:57:18.831Z,98.50
2018-07-03T06:59:48.268Z,97.50
2018-07-03T07:02:17.819Z,96.60
2018-07-03T07:04:47.348Z,97.00
2018-07-03T07:07:16.831Z,96.70
2018-07-03T07:09:46.457Z,97.40
2018-07-03T07:12:15.960Z,95.80
2018-07-03T07:14:45.619Z,95.20
2018-07-03T07:17:16.307Z,95.10
2018-07-03T07:19:45.857Z,94.60
2018-07-03T07:22:15.397Z,95.40
2018-07-03T07:24:44.903Z,94.40
2018-07-03T07:27:14.453Z,93.30
2018-07-03T07:29:44.067Z,93.50
2018-07-03T07:32:14.053Z,92.30
2018-07-03T07:34:43.549Z,90.40
2018-07-03T07:37:13.138Z,90.90
2018-07-03T07:39:42.630Z,91.10
2018-07-03T07:42:12.152Z,85.80
2018-07-03T07:44:42.745Z,82.60
2018-07-03T07:47:12.242Z,89.20
2018-07-03T07:49:41.757Z,77.20
2018-07-03T07:52:11.219Z,76.60
2018-07-03T07:54:40.700Z,75.30
2018-07-03T07:57:10.219Z,72.40
2018-07-03T07:59:39.878Z,72.90
2018-07-03T08:02:09.581Z,77.20
2018-07-03T08:04:39.413Z,74.60
2018-07-03T08:07:08.900Z,78.40
2018-07-03T08:09:38.454Z,74.00
2018-07-03T08:12:07.972Z,72.50
2018-07-03T08:14:37.421Z,74.30
2018-07-03T08:17:06.958Z,72.30
2018-07-03T08:19:36.435Z,71.60
2018-07-03T08:22:06.292Z,72.00
2018-07-03T08:24:35.818Z,71.50
2018-07-03T08:27:05.305Z,73.10
2018-07-03T08:32:04.005Z,68.90
2018-07-03T08:34:33.643Z,66.70
2018-07-03T08:37:03.336Z,67.70
2018-07-03T08:39:32.829Z,66.40
2018-07-03T08:44:31.467Z,62.40
2018-07-03T08:47:00.950Z,62.50
2018-07-03T08:49:31.472Z,63.50
2018-07-03T08:52:01.085Z,60.40
2018-07-03T08:54:30.483Z,61.30
2018-07-03T08:57:00.018Z,59.30
2018-07-03T08:59:29.544Z,60.00
2018-07-03T09:01:59.242Z,63.60
2018-07-03T09:04:28.772Z,60.50
2018-07-03T09:06:58.228Z,59.00
2018-07-03T09:09:28.440Z,57.90
2018-07-03T09:11:57.957Z,54.90
2018-07-03T09:14:27.501Z,58.00
2018-07-03T09:16:57.055Z,53.10
2018-07-03T09:19:26.583Z,53.40
2018-07-03T09:21:56.210Z,51.70
2018-07-03T09:24:26.104Z,54.20
2018-07-03T09:26:55.569Z,52.90
2018-07-03T09:29:25.079Z,52.20
2018-07-03T09:31:54.605Z,52.00
2018-07-03T09:34:24.089Z,51.20
2018-07-03T09:36:53.739Z,52.50
2018-07-03T09:39:23.255Z,50.20
2018-07-03T09:41:52.767Z,54.00
2018-07-03T09:44:22.244Z,53.20
2018-07-03T09:46:51.770Z,49.40
2018-07-03T09:49:21.370Z,51.40
2018-07-03T09:51:50.902Z,48.20
2018-07-03T09:54:20.453Z,50.60
2018-07-03T09:56:49.949Z,50.20
2018-07-03T09:59:19.655Z,47.90
2018-07-03T10:01:49.568Z,48.30
2018-07-03T10:04:19.054Z,47.00
2018-07-03T10:06:48.637Z,51.40
2018-07-03T10:09:18.187Z,47.80
2018-07-03T10:11:47.741Z,48.30
2018-07-03T10:14:17.368Z,49.00
2018-07-03T10:16:48.457Z,48.50
2018-07-03T10:19:18.350Z,49.40
2018-07-03T10:21:47.857Z,50.10
2018-07-03T10:24:17.434Z,47.50
2018-07-03T10:26:47.000Z,48.20
2018-07-03T10:29:16.645Z,49.50
2018-07-03T10:31:46.201Z,47.90
2018-07-03T10:34:15.727Z,49.30
2018-07-03T10:36:45.506Z,48.30
2018-07-03T10:39:15.034Z,49.40
2018-07-03T10:41:44.520Z,50.90
2018-07-03T10:44:14.020Z,49.20
2018-07-03T10:46:43.578Z,48.60
2018-07-03T10:49:13.191Z,49.80
2018-07-03T10:51:42.848Z,49.00
2018-07-03T10:54:12.479Z,50.30
2018-07-03T10:56:42.153Z,51.00
2018-07-03T10:59:11.817Z,48.70
2018-07-03T11:01:41.290Z,49.70
2018-07-03T11:04:10.871Z,48.90
2018-07-03T11:06:40.400Z,48.60
2018-07-03T11:09:11.583Z,50.00
2018-07-03T11:11:41.064Z,47.20
2018-07-03T11:14:10.559Z,47.90
2018-07-03T11:16:40.106Z,49.90
2018-07-03T11:19:09.697Z,49.80
2018-07-03T11:21:39.244Z,50.70
2018-07-03T11:24:08.810Z,48.50
2018-07-03T11:26:38.376Z,49.00
2018-07-03T11:29:08.000Z,46.60
2018-07-03T11:34:06.554Z,47.20
2018-07-03T11:36:36.111Z,46.20
2018-07-03T11:39:07.495Z,48.00
2018-07-03T11:41:37.234Z,45.60
2018-07-03T11:44:06.696Z,45.50
2018-07-03T11:46:36.296Z,47.40
2018-07-03T11:51:34.811Z,46.30
2018-07-03T11:54:04.323Z,45.30
2018-07-03T11:56:33.851Z,45.30
2018-07-03T11:59:03.455Z,45.10
2018-07-03T12:01:32.998Z,43.10
2018-07-03T12:04:02.567Z,45.90
2018-07-03T12:06:32.068Z,44.20
2018-07-03T12:09:01.612Z,44.40
2018-07-03T12:11:31.904Z,44.90
2018-07-03T12:14:01.443Z,45.20
2018-07-03T12:16:33.043Z,45.50
2018-07-03T12:19:02.594Z,45.60
2018-07-03T12:21:32.124Z,44.10
2018-07-03T12:24:01.874Z,45.10
2018-07-03T12:26:31.535Z,44.90
2018-07-03T12:29:01.271Z,43.70
2018-07-03T12:31:30.663Z,43.60
2018-07-03T12:34:00.163Z,43.90
2018-07-03T12:36:29.784Z,44.70
2018-07-03T12:38:59.341Z,44.90
2018-07-03T12:43:57.958Z,46.90
2018-07-03T12:46:27.538Z,44.30
2018-07-03T12:48:56.996Z,46.90
2018-07-03T12:51:26.522Z,43.80
2018-07-03T12:53:56.091Z,42.70
2018-07-03T12:56:25.583Z,43.60
2018-07-03T12:58:55.677Z,43.40
2018-07-03T13:01:25.200Z,43.50
2018-07-03T13:03:55.239Z,42.70
2018-07-03T13:06:24.792Z,44.20
2018-07-03T13:08:54.326Z,42.40
2018-07-03T13:11:23.903Z,43.00
2018-07-03T13:13:53.382Z,44.30
2018-07-03T13:16:22.946Z,43.30
2018-07-03T13:18:52.488Z,42.80
2018-07-03T13:21:22.063Z,43.60
2018-07-03T13:23:51.539Z,42.90
2018-07-03T13:31:19.288Z,41.80
2018-07-03T13:33:48.806Z,47.50
2018-07-03T13:36:18.367Z,49.00
2018-07-03T13:38:47.937Z,42.50
2018-07-03T13:41:17.423Z,44.70
2018-07-03T13:43:46.971Z,42.70
2018-07-03T13:46:16.491Z,42.40
2018-07-03T13:48:46.031Z,44.10
2018-07-03T13:51:15.792Z,43.80
2018-07-03T13:53:45.382Z,43.10
2018-07-03T13:56:14.909Z,41.60
2018-07-03T13:58:44.435Z,43.90
2018-07-03T14:01:13.972Z,41.70
2018-07-03T14:03:43.476Z,43.00
2018-07-03T14:06:12.918Z,41.10
2018-07-03T14:08:42.618Z,40.20
2018-07-03T14:11:12.628Z,41.80
2018-07-03T14:13:42.383Z,41.60
2018-07-03T14:16:12.164Z,40.90
2018-07-03T14:18:41.848Z,41.10
2018-07-03T14:21:11.491Z,41.90
2018-07-03T14:23:41.230Z,40.70
2018-07-03T14:26:10.964Z,40.40
2018-07-03T14:28:40.949Z,40.20
2018-07-03T14:31:10.638Z,40.50
2018-07-03T14:33:40.268Z,40.70
2018-07-03T14:36:10.528Z,42.50
2018-07-03T14:38:40.056Z,41.90
2018-07-03T14:41:09.858Z,40.60
2018-07-03T14:43:39.624Z,41.10
2018-07-03T14:46:09.217Z,42.20
2018-07-03T14:48:39.012Z,40.20
2018-07-03T14:51:08.559Z,40.70
2018-07-03T14:53:38.150Z,42.00
2018-07-03T14:56:07.976Z,39.90
2018-07-03T14:58:37.783Z,39.30
2018-07-03T15:01:07.474Z,39.40
2018-07-03T15:03:37.268Z,38.50
2018-07-03T15:06:06.861Z,38.10
2018-07-03T15:08:36.397Z,39.80
2018-07-03T15:11:05.982Z,40.50
2018-07-03T15:13:35.564Z,38.70
2018-07-03T15:16:05.094Z,40.40
2018-07-03T15:18:39.892Z,38.60
2018-07-03T15:21:09.595Z,38.10
2018-07-03T15:26:08.455Z,38.80
2018-07-03T15:28:38.891Z,39.00
2018-07-03T15:31:08.822Z,37.00
2018-07-03T15:36:07.660Z,38.50
2018-07-03T15:38:37.285Z,37.00
2018-07-03T15:41:06.856Z,37.20
2018-07-03T15:46:05.908Z,37.20
2018-07-03T15:48:35.362Z,36.10
2018-07-03T15:53:33.947Z,37.50
2018-07-03T15:56:03.486Z,37.70
2018-07-03T15:58:33.304Z,38.90
2018-07-03T16:01:02.873Z,38.40
2018-07-03T16:06:03.702Z,38.70
2018-07-03T16:08:43.942Z,41.30
2018-07-03T16:11:13.503Z,38.30
2018-07-03T16:13:43.117Z,37.90
2018-07-03T16:16:12.659Z,38.30
2018-07-03T16:18:42.212Z,36.40
2018-07-03T16:21:11.793Z,37.20
2018-07-03T16:23:41.467Z,38.00
2018-07-03T16:26:11.009Z,35.70
2018-07-03T16:28:40.523Z,36.30
2018-07-03T16:31:10.045Z,35.50
2018-07-03T16:33:39.523Z,36.90
2018-07-03T16:36:09.026Z,37.30
2018-07-03T16:38:38.532Z,36.10
2018-07-03T16:41:08.380Z,36.50
2018-07-03T16:43:37.956Z,37.00
2018-07-03T16:46:07.910Z,35.10
2018-07-03T16:48:38.061Z,35.10
2018-07-03T16:51:08.223Z,34.30
2018-07-03T16:56:08.657Z,33.80
2018-07-03T16:58:38.559Z,36.40
2018-07-03T17:01:08.228Z,35.90
2018-07-03T17:03:38.212Z,34.30
2018-07-03T17:06:08.082Z,35.30
2018-07-03T17:08:37.624Z,34.70
2018-07-03T17:11:07.383Z,33.30
2018-07-03T17:13:37.435Z,34.20
2018-07-03T17:16:07.063Z,34.50
2018-07-03T17:18:36.694Z,34.10
2018-07-03T17:21:06.218Z,33.90
2018-07-03T17:23:35.843Z,34.40
2018-07-03T17:26:05.406Z,35.70
2018-07-03T17:28:35.001Z,33.70
2018-07-03T17:31:04.573Z,37.50
2018-07-03T17:33:34.150Z,36.80
2018-07-03T17:36:03.798Z,34.30
2018-07-03T17:38:33.303Z,33.70
2018-07-03T17:41:14.264Z,36.50
2018-07-03T17:44:07.319Z,34.80
2018-07-03T17:46:36.910Z,35.80
2018-07-03T17:49:06.468Z,35.50
2018-07-03T17:51:36.360Z,37.40
2018-07-03T17:54:06.184Z,37.10
2018-07-03T17:56:35.842Z,37.70
2018-07-03T17:59:05.849Z,37.80
2018-07-03T18:01:35.460Z,38.70
2018-07-03T18:04:04.982Z,39.10
2018-07-03T18:06:34.659Z,37.00
2018-07-03T18:09:06.434Z,38.50
2018-07-03T18:11:36.431Z,39.70
2018-07-03T18:14:06.661Z,39.50
2018-07-03T18:16:36.770Z,40.70
2018-07-03T18:19:11.619Z,42.80
2018-07-03T18:21:41.414Z,46.10
2018-07-03T18:24:11.077Z,49.50
2018-07-03T18:26:40.628Z,54.00
2018-07-03T18:29:10.432Z,56.80
2018-07-03T18:31:39.811Z,58.70
2018-07-03T18:34:09.832Z,60.00
2018-07-03T18:36:39.382Z,61.20
2018-07-03T18:39:09.736Z,62.60
2018-07-03T18:41:39.546Z,63.50
2018-07-03T18:46:38.192Z,64.80
2018-07-03T18:49:07.783Z,65.70
2018-07-03T18:51:37.341Z,66.20
2018-07-03T18:54:07.068Z,66.50
2018-07-03T18:56:36.845Z,67.50
2018-07-03T18:59:06.429Z,67.80
2018-07-03T19:01:35.940Z,68.50
2018-07-03T19:04:05.591Z,68.60
2018-07-03T19:06:35.414Z,69.00
2018-07-03T19:09:06.283Z,69.20
2018-07-03T19:11:36.173Z,70.40
2018-07-03T19:14:05.734Z,69.90
2018-07-03T19:16:35.307Z,70.60
2018-07-03T19:19:04.839Z,71.70
2018-07-03T19:21:34.835Z,71.70
2018-07-03T19:24:04.405Z,72.60
2018-07-03T19:26:33.995Z,73.70
2018-07-03T19:29:03.850Z,73.20
2018-07-03T19:31:33.562Z,73.40
2018-07-03T19:34:03.445Z,73.60
2018-07-03T19:36:33.022Z,74.50
2018-07-03T19:39:03.119Z,74.50
2018-07-03T19:41:32.840Z,74.70
2018-07-03T19:44:02.652Z,75.60
2018-07-03T19:46:32.394Z,76.10
2018-07-03T19:49:01.957Z,77.20
2018-07-03T19:51:32.138Z,78.00
2018-07-03T19:54:01.856Z,78.30
2018-07-03T19:56:32.343Z,79.50
2018-07-03T19:59:02.478Z,80.00
2018-07-03T20:01:33.253Z,81.10
2018-07-03T20:04:02.837Z,81.60
2018-07-03T20:06:32.513Z,82.50
2018-07-03T20:09:02.240Z,83.00
2018-07-03T20:11:31.726Z,83.70
2018-07-03T20:14:01.230Z,84.60
2018-07-03T20:16:30.761Z,84.40
2018-07-03T20:19:00.388Z,85.80
2018-07-03T20:21:29.940Z,86.70
2018-07-03T20:23:59.515Z,89.00
2018-07-03T20:26:29.052Z,89.30
2018-07-03T20:28:58.627Z,88.50
2018-07-03T20:31:29.099Z,89.50
2018-07-03T20:33:58.608Z,90.40
2018-07-03T20:36:28.158Z,90.30
2018-07-03T20:38:57.861Z,90.80
2018-07-03T20:41:27.389Z,91.40
2018-07-03T20:43:56.895Z,92.20
2018-07-03T20:46:26.394Z,92.20
2018-07-03T20:48:58.116Z,92.50
2018-07-03T20:51:29.866Z,92.50
2018-07-03T20:53:59.421Z,93.20
2018-07-03T20:56:28.926Z,93.30
2018-07-03T20:58:58.443Z,93.90
2018-07-03T21:01:28.006Z,94.50
2018-07-03T21:03:57.621Z,94.70
2018-07-03T21:06:27.069Z,96.90
2018-07-03T21:08:56.601Z,96.50
2018-07-03T21:11:26.149Z,96.90
2018-07-03T21:13:55.756Z,96.90
2018-07-03T21:16:25.353Z,96.90
2018-07-03T21:18:56.200Z,97.00
2018-07-03T21:21:26.847Z,97.00
2018-07-03T21:23:56.345Z,97.00
2018-07-03T21:26:25.888Z,97.00
2018-07-03T21:28:55.929Z,97.20
2018-07-03T21:31:25.386Z,97.40
2018-07-03T21:33:54.927Z,97.20
2018-07-03T21:36:24.449Z,97.90
2018-07-03T21:38:54.021Z,97.50
2018-07-03T21:41:23.866Z,97.40
2018-07-03T21:43:53.354Z,97.60
2018-07-03T21:46:22.861Z,97.70
2018-07-03T21:48:52.428Z,97.90
2018-07-03T21:51:21.912Z,97.40
2018-07-03T21:56:20.504Z,97.50
2018-07-03T21:58:50.019Z,97.90
2018-07-03T22:01:19.685Z,98.30
2018-07-03T22:03:49.169Z,97.50
2018-07-03T22:06:18.669Z,97.40
2018-07-03T22:08:48.188Z,97.60
2018-07-03T22:11:17.719Z,98.20
2018-07-03T22:13:47.265Z,98.20
2018-07-03T22:16:16.792Z,97.90
2018-07-03T22:18:46.385Z,97.80
2018-07-03T22:21:15.884Z,97.90
2018-07-03T22:23:45.353Z,98.00
2018-07-03T22:26:14.962Z,98.10
2018-07-03T22:31:14.097Z,98.60
2018-07-03T22:33:43.604Z,98.60
2018-07-03T22:36:13.268Z,98.60
2018-07-03T22:38:43.066Z,98.50
2018-07-03T22:41:12.592Z,99.00
2018-07-03T22:43:42.089Z,98.90
2018-07-03T22:46:11.654Z,99.40
2018-07-03T22:48:41.136Z,99.60
2018-07-03T22:51:10.676Z,99.50
2018-07-03T22:53:40.232Z,99.70
2018-07-03T22:56:09.797Z,99.90
2018-07-03T22:58:40.084Z,99.90
2018-07-03T23:01:09.621Z,99.90
2018-07-03T23:03:39.177Z,99.90
2018-07-03T23:08:37.708Z,99.90
2018-07-03T23:11:07.350Z,99.90
2018-07-03T23:13:37.091Z,99.90
2018-07-03T23:16:06.606Z,99.90
2018-07-03T23:18:36.157Z,99.90
2018-07-03T23:21:06.112Z,99.90
2018-07-03T23:23:35.596Z,99.90
2018-07-03T23:26:05.222Z,99.90
2018-07-03T23:28:34.792Z,99.90
2018-07-03T23:31:04.347Z,99.90
2018-07-03T23:33:33.885Z,99.90
2018-07-03T23:36:03.472Z,99.90
2018-07-03T23:38:33.238Z,99.90
2018-07-03T23:41:02.796Z,99.90
2018-07-03T23:43:32.337Z,99.90
2018-07-03T23:46:01.241Z,99.90
2018-07-03T23:48:41.617Z,99.90
2018-07-03T23:51:22.248Z,99.90
2018-07-03T23:54:02.974Z,99.90
2018-07-03T23:56:43.554Z,99.90
2018-07-03T23:59:24.410Z,99.90
